Time;durP1;ratioP1;P1;durP2;ratioP2;P2;SDS_P1;SDS_P2;PMS_P1;PMS_P2;Temp;Humidity;BMP_temperature;BMP_pressure;BME280_temperature;BME280_humidity;BME280_pressure;Samples;Min_cycle;Max_cycle;Signal;HPM_P1;HPM_P2
2020/12/09 00:02:06;;;;;;;65.45;32.65;;;2.50;99.90;;;;;;4990315;28;20026;-73
2020/12/09 00:04:32;;;;;;;57.55;30.13;;;2.50;99.90;;;;;;4991404;28;20105;-74
2020/12/09 00:06:57;;;;;;;63.58;33.08;;;2.50;99.90;;;;;;4991339;28;20113;-73
2020/12/09 00:09:23;;;;;;;69.28;32.67;;;2.50;99.90;;;;;;4990818;28;20023;-73
2020/12/09 00:11:54;;;;;;;61.65;30.77;;;2.50;99.90;;;;;;4988637;28;20042;-73
2020/12/09 00:14:20;;;;;;;64.80;32.03;;;2.50;99.90;;;;;;4989385;28;20022;-73
2020/12/09 00:16:46;;;;;;;63.38;31.58;;;2.60;99.90;;;;;;4990281;28;20030;-74
2020/12/09 00:19:12;;;;;;;60.10;31.13;;;2.60;99.90;;;;;;4989732;28;20080;-73
2020/12/09 00:21:37;;;;;;;62.25;32.17;;;2.60;99.90;;;;;;4989881;28;20661;-72
2020/12/09 00:24:04;;;;;;;61.05;31.80;;;2.50;99.90;;;;;;4988964;28;20025;-74
2020/12/09 00:26:30;;;;;;;62.97;31.00;;;2.50;99.90;;;;;;4989566;28;20384;-73
2020/12/09 00:28:57;;;;;;;60.95;30.73;;;2.60;99.90;;;;;;4989852;28;20801;-76
2020/12/09 00:31:25;;;;;;;63.67;31.75;;;2.60;99.90;;;;;;4989866;28;20029;-73
2020/12/09 00:33:51;;;;;;;61.67;29.58;;;2.60;99.90;;;;;;4989210;28;20025;-75
2020/12/09 00:36:19;;;;;;;60.72;30.92;;;2.50;99.90;;;;;;4989535;28;20093;-77
2020/12/09 00:38:45;;;;;;;54.55;29.35;;;2.70;99.90;;;;;;4989950;28;20093;-74
2020/12/09 00:41:15;;;;;;;61.13;31.60;;;2.60;99.90;;;;;;4989884;28;20022;-72
2020/12/09 00:43:41;;;;;;;58.60;30.30;;;2.70;99.90;;;;;;4988936;28;20488;-73
2020/12/09 00:46:07;;;;;;;62.00;30.55;;;2.60;99.90;;;;;;4988266;28;20030;-74
2020/12/09 00:48:33;;;;;;;64.85;32.47;;;2.60;99.90;;;;;;4988590;28;20261;-74
2020/12/09 00:50:59;;;;;;;65.25;32.13;;;2.60;99.90;;;;;;4989330;28;20026;-73
2020/12/09 00:53:26;;;;;;;59.95;30.58;;;2.60;99.90;;;;;;4988982;28;20109;-72
2020/12/09 00:55:53;;;;;;;61.92;31.77;;;2.60;99.90;;;;;;4989287;28;20018;-74
2020/12/09 00:58:19;;;;;;;71.15;34.65;;;2.50;99.90;;;;;;4989139;28;20149;-74
2020/12/09 01:00:44;;;;;;;66.68;33.47;;;2.60;99.90;;;;;;4989897;28;20499;-73
2020/12/09 01:03:10;;;;;;;64.22;30.60;;;2.50;99.90;;;;;;4989315;28;20064;-72
2020/12/09 01:05:36;;;;;;;60.03;31.48;;;2.50;99.90;;;;;;4988751;28;20392;-73
2020/12/09 01:08:01;;;;;;;66.20;32.00;;;2.50;99.90;;;;;;4990540;28;20105;-74
2020/12/09 01:10:27;;;;;;;63.45;32.35;;;2.50;99.90;;;;;;4989205;28;20030;-70
2020/12/09 01:12:53;;;;;;;60.95;31.60;;;2.50;99.90;;;;;;4990164;28;20033;-69
2020/12/09 01:15:18;;;;;;;65.88;33.38;;;2.40;99.90;;;;;;4993158;28;20444;-70
2020/12/09 01:17:44;;;;;;;64.65;34.33;;;2.50;99.90;;;;;;4991189;28;20018;-70
2020/12/09 01:20:10;;;;;;;62.83;31.88;;;2.40;99.90;;;;;;4991466;28;20073;-69
2020/12/09 01:22:36;;;;;;;67.35;34.13;;;2.40;99.90;;;;;;4991421;28;20031;-71
2020/12/09 01:25:02;;;;;;;76.25;35.28;;;2.40;99.90;;;;;;4990735;28;20022;-70
2020/12/09 01:27:28;;;;;;;63.95;31.70;;;2.40;99.90;;;;;;4991655;28;20418;-72
2020/12/09 01:29:54;;;;;;;67.57;34.30;;;2.40;99.90;;;;;;4991580;28;20081;-71
2020/12/09 01:32:21;;;;;;;61.22;31.55;;;2.40;99.90;;;;;;4991489;28;20034;-72
2020/12/09 01:34:46;;;;;;;66.90;32.53;;;2.40;99.90;;;;;;4990639;28;20489;-71
2020/12/09 01:37:12;;;;;;;71.10;34.47;;;2.40;99.90;;;;;;4991403;28;20109;-70
2020/12/09 01:39:41;;;;;;;72.43;34.58;;;2.40;99.90;;;;;;5006928;28;20079;-69
2020/12/09 01:42:07;;;;;;;65.70;32.42;;;2.30;99.90;;;;;;5011810;28;20100;-70
2020/12/09 01:44:33;;;;;;;70.88;34.85;;;2.30;99.90;;;;;;5010733;28;20022;-71
2020/12/09 01:47:04;;;;;;;66.32;33.83;;;2.30;99.90;;;;;;5011358;28;20068;-70
2020/12/09 01:49:30;;;;;;;68.35;33.22;;;2.30;99.90;;;;;;5011911;28;20056;-70
2020/12/09 01:51:55;;;;;;;70.55;34.90;;;2.30;99.90;;;;;;5012536;28;20026;-70
2020/12/09 01:54:21;;;;;;;68.53;32.63;;;2.20;99.90;;;;;;5009742;28;20033;-70
2020/12/09 01:57:12;;;;;;;71.50;34.15;;;2.20;99.90;;;;;;5010743;28;20038;-70
2020/12/09 01:59:39;;;;;;;79.28;35.92;;;2.30;99.90;;;;;;5010977;28;20034;-71
2020/12/09 02:02:06;;;;;;;75.93;34.13;;;2.40;99.90;;;;;;5010914;28;20456;-70
2020/12/09 02:04:33;;;;;;;82.93;36.67;;;2.40;99.90;;;;;;5009941;28;20061;-70
2020/12/09 02:06:58;;;;;;;79.55;36.50;;;2.30;99.90;;;;;;5010828;28;20022;-70
2020/12/09 02:09:25;;;;;;;76.00;36.42;;;2.30;99.90;;;;;;5013300;28;20031;-71
2020/12/09 02:11:52;;;;;;;67.90;34.72;;;2.40;99.90;;;;;;5014623;28;20511;-71
2020/12/09 02:14:19;;;;;;;76.70;35.08;;;2.30;99.90;;;;;;5015063;28;20429;-70
2020/12/09 02:16:55;;;;;;;73.22;34.10;;;2.30;99.90;;;;;;5015807;28;20041;-70
2020/12/09 02:19:22;;;;;;;70.30;34.28;;;2.30;99.90;;;;;;5015949;28;20542;-71
2020/12/09 02:21:48;;;;;;;73.25;33.40;;;2.40;99.90;;;;;;5015438;28;20037;-71
2020/12/09 02:24:15;;;;;;;75.97;36.00;;;2.40;99.90;;;;;;5014181;28;20018;-72
2020/12/09 02:26:46;;;;;;;73.70;34.78;;;2.50;99.90;;;;;;5014077;28;20109;-69
2020/12/09 02:29:13;;;;;;;69.78;32.97;;;2.40;99.90;;;;;;5013883;28;20022;-71
2020/12/09 02:31:39;;;;;;;76.03;37.10;;;2.40;99.90;;;;;;5014040;28;20034;-70
2020/12/09 02:34:05;;;;;;;70.85;33.58;;;2.40;99.90;;;;;;5013254;28;20014;-69
2020/12/09 02:36:31;;;;;;;79.38;37.50;;;2.40;99.90;;;;;;5013913;28;20022;-69
2020/12/09 02:38:58;;;;;;;90.68;37.20;;;2.50;99.90;;;;;;5013478;28;20117;-72
2020/12/09 02:41:23;;;;;;;75.93;33.80;;;2.50;99.90;;;;;;5014309;28;20042;-71
2020/12/09 02:43:49;;;;;;;76.38;36.25;;;2.40;99.90;;;;;;5012019;28;20061;-69
2020/12/09 02:46:15;;;;;;;75.80;36.03;;;2.40;99.90;;;;;;5013858;28;20029;-71
2020/12/09 02:48:40;;;;;;;82.43;36.58;;;2.40;99.90;;;;;;5013648;28;20097;-71
2020/12/09 02:51:06;;;;;;;78.18;36.10;;;2.40;99.90;;;;;;5013697;28;20366;-72
2020/12/09 02:53:32;;;;;;;79.70;35.72;;;2.50;99.90;;;;;;5012941;28;20111;-70
2020/12/09 02:55:57;;;;;;;73.53;34.70;;;2.40;99.90;;;;;;5013306;28;20026;-70
2020/12/09 02:58:23;;;;;;;79.32;35.88;;;2.40;99.90;;;;;;5013440;28;20032;-70
2020/12/09 03:00:49;;;;;;;83.40;37.28;;;2.40;99.90;;;;;;5013434;28;20041;-73
2020/12/09 03:03:15;;;;;;;80.85;36.97;;;2.50;99.90;;;;;;5012228;28;20096;-71
2020/12/09 03:05:41;;;;;;;78.15;35.45;;;2.50;99.90;;;;;;5013366;28;20384;-72
2020/12/09 03:08:07;;;;;;;69.30;32.65;;;2.50;99.90;;;;;;5012307;28;20022;-71
2020/12/09 03:10:32;;;;;;;76.63;35.38;;;2.50;99.90;;;;;;5013067;28;20381;-70
2020/12/09 03:12:58;;;;;;;78.65;36.15;;;2.60;99.90;;;;;;5012379;28;20028;-72
2020/12/09 03:15:24;;;;;;;76.55;37.40;;;2.50;99.90;;;;;;5012867;28;20018;-71
2020/12/09 03:17:50;;;;;;;76.53;35.58;;;2.60;99.90;;;;;;5013010;28;20081;-72
2020/12/09 03:20:16;;;;;;;73.07;34.22;;;2.60;99.90;;;;;;5012043;28;20030;-70
2020/12/09 03:22:41;;;;;;;82.20;36.47;;;2.60;99.90;;;;;;5012350;28;20037;-71
2020/12/09 03:25:07;;;;;;;85.38;36.65;;;2.60;99.90;;;;;;5012600;28;20072;-71
2020/12/09 03:27:33;;;;;;;72.57;33.47;;;2.60;99.90;;;;;;5012920;28;20026;-72
2020/12/09 03:29:58;;;;;;;77.95;35.90;;;2.50;99.90;;;;;;5013073;28;20021;-74
2020/12/09 03:32:24;;;;;;;75.78;34.65;;;2.60;99.90;;;;;;5012932;28;20021;-71
2020/12/09 03:34:50;;;;;;;74.18;34.13;;;2.60;99.90;;;;;;5011903;28;20029;-70
2020/12/09 03:37:15;;;;;;;71.30;35.28;;;2.60;99.90;;;;;;5012902;28;20030;-71
2020/12/09 03:39:41;;;;;;;70.35;33.33;;;2.60;99.90;;;;;;5012529;28;20045;-71
2020/12/09 03:42:07;;;;;;;73.85;35.33;;;2.60;99.90;;;;;;5012762;28;20062;-71
2020/12/09 03:44:33;;;;;;;68.05;32.15;;;2.60;99.90;;;;;;5011995;28;20029;-72
2020/12/09 03:46:59;;;;;;;70.70;33.17;;;2.70;99.90;;;;;;5013415;28;20018;-73
2020/12/09 03:49:25;;;;;;;72.47;34.00;;;2.60;99.90;;;;;;5012517;28;20067;-69
2020/12/09 03:51:51;;;;;;;71.35;34.78;;;2.60;99.90;;;;;;5012560;28;20026;-70
2020/12/09 03:54:17;;;;;;;69.28;33.33;;;2.60;99.90;;;;;;5011551;28;20029;-69
2020/12/09 03:56:43;;;;;;;64.50;32.40;;;2.60;99.90;;;;;;5012563;28;20435;-70
2020/12/09 03:59:08;;;;;;;63.40;32.03;;;2.50;99.90;;;;;;5012582;28;20118;-70
2020/12/09 04:01:34;;;;;;;70.88;34.35;;;2.50;99.90;;;;;;5011285;28;20022;-72
2020/12/09 04:04:00;;;;;;;65.68;32.13;;;2.50;99.90;;;;;;5011734;28;20022;-70
2020/12/09 04:06:26;;;;;;;66.43;32.45;;;2.50;99.90;;;;;;5010942;28;20045;-71
2020/12/09 04:08:52;;;;;;;75.45;35.33;;;2.50;99.90;;;;;;5012656;28;20338;-71
2020/12/09 04:11:17;;;;;;;69.28;34.28;;;2.60;99.90;;;;;;5012511;28;20417;-70
2020/12/09 04:13:43;;;;;;;68.35;33.50;;;2.50;99.90;;;;;;5012025;28;20030;-70
2020/12/09 04:16:09;;;;;;;68.30;32.28;;;2.60;99.90;;;;;;5012105;28;20061;-73
2020/12/09 04:18:34;;;;;;;69.18;32.42;;;2.60;99.90;;;;;;5012125;28;20044;-72
2020/12/09 04:21:00;;;;;;;68.80;31.65;;;2.60;99.90;;;;;;5012399;28;20543;-71
2020/12/09 04:23:27;;;;;;;74.72;33.35;;;2.60;99.90;;;;;;5009413;28;20080;-73
2020/12/09 04:25:52;;;;;;;73.90;34.88;;;2.60;99.90;;;;;;5011463;28;20037;-71
2020/12/09 04:28:18;;;;;;;70.72;34.33;;;2.60;99.90;;;;;;5011744;28;20049;-72
2020/12/09 04:30:44;;;;;;;67.60;32.97;;;2.60;99.90;;;;;;5011632;28;20542;-72
2020/12/09 04:33:10;;;;;;;74.57;34.13;;;2.80;99.90;;;;;;5010968;28;20030;-70
2020/12/09 04:35:36;;;;;;;74.20;34.38;;;2.70;99.90;;;;;;5010373;28;20072;-73
2020/12/09 04:38:03;;;;;;;74.95;35.30;;;2.80;99.90;;;;;;5011887;28;20051;-72
2020/12/09 04:40:29;;;;;;;70.57;33.15;;;2.60;99.90;;;;;;5011336;28;20026;-72
2020/12/09 04:43:00;;;;;;;71.55;34.70;;;2.60;99.90;;;;;;5010859;28;20026;-71
2020/12/09 04:45:31;;;;;;;76.80;35.50;;;2.70;99.90;;;;;;5011473;28;20429;-72
2020/12/09 04:48:10;;;;;;;67.00;31.15;;;2.70;99.90;;;;;;5011215;28;20624;-71
2020/12/09 04:50:51;;;;;;;72.88;33.60;;;2.70;99.90;;;;;;5011025;28;20091;-71
2020/12/09 04:53:24;;;;;;;72.97;33.22;;;2.60;99.90;;;;;;5010491;28;20029;-69
2020/12/09 04:55:52;;;;;;;74.72;34.08;;;2.60;99.90;;;;;;5010934;28;20034;-71
2020/12/09 04:58:41;;;;;;;67.57;33.65;;;2.60;99.90;;;;;;5011198;28;20328;-71
2020/12/09 05:01:09;;;;;;;74.03;34.65;;;2.60;99.90;;;;;;5009630;28;20075;-72
2020/12/09 05:03:46;;;;;;;77.85;36.60;;;2.60;99.90;;;;;;5008857;28;20384;-71
2020/12/09 05:06:17;;;;;;;70.97;33.33;;;3.20;99.90;;;;;;5011204;28;20026;-72
2020/12/09 05:08:55;;;;;;;76.75;36.20;;;2.60;99.90;;;;;;5011007;28;20057;-71
2020/12/09 05:11:22;;;;;;;79.40;37.00;;;2.60;99.90;;;;;;5011083;28;20032;-71
2020/12/09 05:13:52;;;;;;;75.47;34.38;;;2.50;99.90;;;;;;5009677;28;20029;-72
2020/12/09 05:16:20;;;;;;;76.80;35.13;;;2.50;99.90;;;;;;5011732;28;20065;-71
2020/12/09 05:18:46;;;;;;;83.85;36.15;;;2.60;99.90;;;;;;5003857;28;20022;-71
2020/12/09 05:21:20;;;;;;;79.50;36.30;;;2.60;99.90;;;;;;4991683;28;20112;-72
2020/12/09 05:23:56;;;;;;;73.25;35.13;;;2.40;99.90;;;;;;4992110;28;20504;-72
2020/12/09 05:26:24;;;;;;;69.30;33.55;;;2.40;99.90;;;;;;4992614;28;20022;-72
2020/12/09 05:29:04;;;;;;;78.97;34.45;;;2.40;99.90;;;;;;4992045;28;20453;-71
2020/12/09 05:31:30;;;;;;;72.07;35.03;;;2.40;99.90;;;;;;4990936;28;20440;-72
2020/12/09 05:33:55;;;;;;;72.68;35.17;;;2.40;99.90;;;;;;4990369;28;20031;-72
2020/12/09 05:36:22;;;;;;;76.60;37.17;;;2.30;99.90;;;;;;4991046;28;20036;-70
2020/12/09 05:39:05;;;;;;;80.88;37.97;;;2.40;99.90;;;;;;5006970;28;20038;-70
2020/12/09 05:41:34;;;;;;;84.97;36.60;;;2.50;99.90;;;;;;5010374;28;20076;-71
2020/12/09 05:44:01;;;;;;;79.60;37.33;;;2.50;99.90;;;;;;5012313;28;20042;-70
2020/12/09 05:46:27;;;;;;;70.18;34.67;;;2.40;99.90;;;;;;5014658;28;20026;-68
2020/12/09 05:48:53;;;;;;;71.05;34.50;;;2.30;99.90;;;;;;5014298;28;20064;-70
2020/12/09 05:51:19;;;;;;;78.50;37.80;;;2.40;99.90;;;;;;5014222;28;20041;-69
2020/12/09 05:53:46;;;;;;;76.40;35.67;;;2.40;99.90;;;;;;5013717;28;20088;-70
2020/12/09 05:56:12;;;;;;;78.22;35.55;;;2.40;99.90;;;;;;5014087;28;20034;-71
2020/12/09 05:58:40;;;;;;;76.38;35.85;;;2.50;99.90;;;;;;5014325;28;20484;-72
2020/12/09 06:01:06;;;;;;;76.88;35.22;;;2.50;99.90;;;;;;5014504;28;20022;-71
2020/12/09 06:03:33;;;;;;;78.20;35.63;;;2.40;99.90;;;;;;5018897;28;20037;-70
2020/12/09 06:06:23;;;;;;;76.57;35.67;;;2.40;99.90;;;;;;5024844;28;20030;-71
2020/12/09 06:08:51;;;;;;;78.63;36.60;;;2.40;99.90;;;;;;5020687;28;20026;-71
2020/12/09 06:11:26;;;;;;;78.35;36.08;;;2.40;99.90;;;;;;5018917;28;20022;-71
2020/12/09 06:13:52;;;;;;;74.10;32.92;;;2.50;99.90;;;;;;5023337;28;20041;-72
2020/12/09 06:16:20;;;;;;;73.57;33.78;;;2.70;99.90;;;;;;5025370;28;20030;-70
2020/12/09 06:18:51;;;;;;;73.13;34.80;;;2.70;99.90;;;;;;5020381;28;20483;-70
2020/12/09 06:21:17;;;;;;;80.63;36.28;;;2.60;99.90;;;;;;5013448;28;20030;-71
2020/12/09 06:23:43;;;;;;;73.43;37.35;;;2.90;99.90;;;;;;4996216;28;20538;-71
2020/12/09 06:26:10;;;;;;;69.55;33.83;;;2.80;99.90;;;;;;4995585;28;20062;-68
2020/12/09 06:28:42;;;;;;;67.22;32.70;;;2.70;99.90;;;;;;4995311;28;20030;-69
2020/12/09 06:31:11;;;;;;;62.58;32.47;;;2.60;99.90;;;;;;4994246;28;20022;-71
2020/12/09 06:33:51;;;;;;;71.85;34.50;;;2.40;99.90;;;;;;4995889;28;20030;-69
2020/12/09 06:36:25;;;;;;;66.80;32.30;;;2.50;99.90;;;;;;4995099;28;20025;-70
2020/12/09 06:39:11;;;;;;;75.18;35.28;;;2.50;99.90;;;;;;4993238;28;20076;-71
2020/12/09 06:41:57;;;;;;;71.57;34.40;;;2.40;99.90;;;;;;4977462;28;20035;-70
2020/12/09 06:44:28;;;;;;;69.80;34.17;;;2.40;99.90;;;;;;4970016;28;20461;-69
2020/12/09 06:46:55;;;;;;;66.32;33.13;;;2.40;99.90;;;;;;4975395;28;20023;-69
2020/12/09 06:49:30;;;;;;;77.50;34.70;;;2.30;99.90;;;;;;4985863;28;20505;-70
2020/12/09 06:51:56;;;;;;;73.72;34.97;;;2.30;99.90;;;;;;4994207;28;20041;-70
2020/12/09 06:54:35;;;;;;;71.57;34.72;;;2.40;99.90;;;;;;4992622;28;20018;-70
2020/12/09 06:57:13;;;;;;;80.40;36.00;;;2.30;99.90;;;;;;4994533;28;20022;-69
2020/12/09 06:59:39;;;;;;;79.80;36.78;;;2.30;99.90;;;;;;4993579;28;20109;-70
2020/12/09 07:02:05;;;;;;;76.22;35.85;;;2.20;99.90;;;;;;4994430;28;20030;-72
2020/12/09 07:04:53;;;;;;;81.90;37.78;;;2.30;99.90;;;;;;4990790;28;20030;-71
2020/12/09 07:07:42;;;;;;;86.60;36.83;;;2.40;99.90;;;;;;4994598;28;20497;-71
2020/12/09 07:10:19;;;;;;;81.15;37.38;;;2.40;99.90;;;;;;5011972;28;20033;-70
2020/12/09 07:13:00;;;;;;;87.15;37.15;;;2.50;99.90;;;;;;5014812;28;20025;-72
2020/12/09 07:15:26;;;;;;;88.00;37.63;;;2.50;99.90;;;;;;5015376;28;20030;-69
2020/12/09 07:17:53;;;;;;;79.55;36.85;;;2.50;99.90;;;;;;5014269;28;20094;-70
2020/12/09 07:20:19;;;;;;;82.28;37.45;;;2.50;99.90;;;;;;5014613;28;20057;-71
2020/12/09 07:22:44;;;;;;;78.75;36.50;;;2.60;99.90;;;;;;5013768;28;20441;-70
2020/12/09 07:25:10;;;;;;;72.45;35.63;;;2.50;99.90;;;;;;5014710;28;20056;-70
2020/12/09 07:27:37;;;;;;;76.75;35.42;;;2.60;99.90;;;;;;5026512;28;20045;-71
2020/12/09 07:30:12;;;;;;;72.72;34.88;;;2.50;99.90;;;;;;5033834;28;20101;-70
2020/12/09 07:32:38;;;;;;;78.40;36.10;;;2.50;99.90;;;;;;5034281;28;20069;-74
2020/12/09 07:35:08;;;;;;;78.43;36.38;;;2.60;99.90;;;;;;5033961;28;20018;-72
2020/12/09 07:37:38;;;;;;;74.07;34.65;;;2.70;99.90;;;;;;5032785;28;20090;-70
2020/12/09 07:40:29;;;;;;;76.90;34.95;;;2.70;99.90;;;;;;5000822;28;20049;-69
2020/12/09 07:43:12;;;;;;;81.95;36.58;;;2.70;99.90;;;;;;4995169;28;20022;-72
2020/12/09 07:45:40;;;;;;;78.65;37.45;;;2.70;99.90;;;;;;4997605;28;20014;-72
2020/12/09 07:48:11;;;;;;;74.65;36.35;;;2.70;99.90;;;;;;4995506;28;20041;-71
2020/12/09 07:50:38;;;;;;;76.47;35.80;;;2.80;99.90;;;;;;4994801;28;20102;-71
2020/12/09 07:53:09;;;;;;;76.43;35.88;;;2.80;99.90;;;;;;4992950;28;20037;-70
2020/12/09 07:55:35;;;;;;;77.72;35.88;;;2.70;99.90;;;;;;4995826;28;20057;-73
2020/12/09 07:58:08;;;;;;;74.50;35.08;;;2.80;99.90;;;;;;4995401;28;20030;-72
2020/12/09 08:00:36;;;;;;;73.65;35.33;;;2.90;99.90;;;;;;4994809;28;20027;-72
2020/12/09 08:03:02;;;;;;;76.75;35.40;;;2.90;99.90;;;;;;4993458;28;20106;-71
2020/12/09 08:05:37;;;;;;;71.15;33.95;;;2.90;99.90;;;;;;4994004;28;20110;-72
2020/12/09 08:08:08;;;;;;;76.40;35.67;;;2.90;99.90;;;;;;4994219;28;20046;-70
2020/12/09 08:10:35;;;;;;;67.40;33.67;;;2.90;99.90;;;;;;4994132;28;20037;-71
2020/12/09 08:13:10;;;;;;;73.88;33.67;;;2.90;99.90;;;;;;4993730;28;20034;-71
2020/12/09 08:15:44;;;;;;;70.35;34.75;;;3.00;99.90;;;;;;4993471;28;20493;-71
2020/12/09 08:18:22;;;;;;;70.20;35.13;;;3.10;99.90;;;;;;4992914;28;20030;-72
2020/12/09 08:20:50;;;;;;;69.35;33.15;;;3.10;99.90;;;;;;4994182;28;20691;-71
2020/12/09 08:23:15;;;;;;;65.82;31.80;;;3.00;99.90;;;;;;4992678;28;20415;-70
2020/12/09 08:25:49;;;;;;;72.00;34.05;;;2.90;99.90;;;;;;4993064;28;20014;-71
2020/12/09 08:28:23;;;;;;;64.47;32.35;;;2.90;99.90;;;;;;4993085;28;20121;-71
2020/12/09 08:30:50;;;;;;;64.38;33.17;;;3.00;99.90;;;;;;4992042;28;20022;-71
2020/12/09 08:33:28;;;;;;;67.20;32.75;;;3.00;99.90;;;;;;4991067;28;20081;-71
2020/12/09 08:35:59;;;;;;;68.97;32.80;;;3.00;99.90;;;;;;4992978;28;20381;-71
2020/12/09 08:38:38;;;;;;;71.13;33.00;;;3.00;99.90;;;;;;4996984;28;20056;-76
2020/12/09 08:41:07;;;;;;;64.70;32.17;;;3.00;99.90;;;;;;5013274;28;20041;-72
2020/12/09 08:43:35;;;;;;;65.90;33.08;;;2.90;99.90;;;;;;5013085;28;20484;-72
2020/12/09 08:46:03;;;;;;;60.63;31.05;;;3.00;99.90;;;;;;5013058;28;20097;-72
2020/12/09 08:48:29;;;;;;;65.22;32.95;;;3.00;99.90;;;;;;5013453;28;20025;-74
2020/12/09 08:50:55;;;;;;;61.88;31.65;;;3.00;99.90;;;;;;5011954;28;20036;-72
2020/12/09 08:53:21;;;;;;;63.90;33.00;;;3.00;99.90;;;;;;5012709;28;20570;-70
2020/12/09 08:55:48;;;;;;;61.15;31.58;;;3.10;99.90;;;;;;5011809;28;20099;-73
2020/12/09 08:58:15;;;;;;;59.83;31.40;;;3.10;99.90;;;;;;5013681;28;20061;-72
2020/12/09 09:00:44;;;;;;;59.63;30.33;;;3.10;99.90;;;;;;5013893;28;20117;-75
2020/12/09 09:03:14;;;;;;;57.53;31.38;;;3.10;99.90;;;;;;5012086;28;20045;-73
2020/12/09 09:05:40;;;;;;;58.15;31.08;;;3.10;99.90;;;;;;5015493;28;20033;-71
2020/12/09 09:08:10;;;;;;;56.08;30.23;;;3.20;99.90;;;;;;5020711;28;20385;-74
2020/12/09 09:10:36;;;;;;;50.38;27.40;;;3.30;99.90;;;;;;4982037;28;20022;-77
2020/12/09 09:13:03;;;;;;;54.45;29.55;;;3.30;99.90;;;;;;4980910;28;20033;-73
2020/12/09 09:15:29;;;;;;;49.92;29.02;;;3.20;99.90;;;;;;4976101;28;20355;-72
2020/12/09 09:17:55;;;;;;;49.20;27.88;;;3.20;99.90;;;;;;4975691;28;20037;-73
2020/12/09 09:20:21;;;;;;;56.05;29.45;;;3.20;99.90;;;;;;4976394;28;20027;-73
2020/12/09 09:22:47;;;;;;;50.30;28.77;;;3.30;99.90;;;;;;4974633;28;20081;-71
2020/12/09 09:25:13;;;;;;;50.85;27.45;;;3.30;99.90;;;;;;4973050;28;20434;-74
2020/12/09 09:27:39;;;;;;;46.30;26.92;;;3.30;99.90;;;;;;4974832;28;20385;-72
2020/12/09 09:30:06;;;;;;;49.28;27.02;;;3.30;99.90;;;;;;4974250;28;20118;-73
2020/12/09 09:32:32;;;;;;;47.42;26.50;;;3.30;99.90;;;;;;4974325;28;20509;-74
2020/12/09 09:34:58;;;;;;;45.40;27.20;;;3.30;99.90;;;;;;4972621;28;20034;-74
2020/12/09 09:37:24;;;;;;;51.50;28.25;;;3.30;99.90;;;;;;4974674;28;20110;-72
2020/12/09 09:39:51;;;;;;;53.47;29.48;;;3.40;99.90;;;;;;4976026;28;20442;-74
2020/12/09 09:42:18;;;;;;;45.85;27.23;;;3.20;99.90;;;;;;4976075;28;20027;-73
2020/12/09 09:44:48;;;;;;;50.33;29.25;;;3.10;99.90;;;;;;4975273;28;20027;-73
2020/12/09 09:47:13;;;;;;;56.42;29.67;;;3.20;99.90;;;;;;4973653;28;20029;-71
2020/12/09 09:49:39;;;;;;;52.33;29.08;;;3.30;99.90;;;;;;4972869;28;20023;-72
2020/12/09 09:52:06;;;;;;;51.47;28.67;;;3.40;99.90;;;;;;4973710;28;20050;-73
2020/12/09 09:54:32;;;;;;;48.53;26.77;;;3.40;99.90;;;;;;4975275;28;20038;-72
2020/12/09 09:56:58;;;;;;;52.13;28.50;;;3.30;99.90;;;;;;4976821;28;20030;-73
2020/12/09 09:59:24;;;;;;;50.75;28.33;;;3.30;99.90;;;;;;4981702;28;20410;-74
2020/12/09 10:01:51;;;;;;;51.10;28.60;;;3.30;99.90;;;;;;4975223;28;20038;-72
2020/12/09 10:04:17;;;;;;;52.28;28.17;;;3.20;99.90;;;;;;4972687;28;20023;-71
2020/12/09 10:06:43;;;;;;;53.28;29.30;;;3.00;99.90;;;;;;4972103;28;20023;-71
2020/12/09 10:09:09;;;;;;;51.78;28.48;;;3.30;99.90;;;;;;4988625;28;20068;-73
2020/12/09 10:11:39;;;;;;;45.58;26.55;;;3.20;99.90;;;;;;5010688;28;20340;-72
2020/12/09 10:14:08;;;;;;;53.53;29.25;;;2.90;99.90;;;;;;5012268;28;20510;-72
2020/12/09 10:16:34;;;;;;;50.47;28.77;;;2.80;99.90;;;;;;5011529;28;20041;-72
2020/12/09 10:19:00;;;;;;;55.58;27.42;;;2.90;99.90;;;;;;5011848;28;20030;-71
2020/12/09 10:21:34;;;;;;;51.45;27.70;;;3.00;99.90;;;;;;5012239;28;20046;-71
2020/12/09 10:24:01;;;;;;;51.85;29.83;;;3.10;99.90;;;;;;5009807;28;20026;-72
2020/12/09 10:26:31;;;;;;;50.90;27.73;;;3.00;99.90;;;;;;5012506;28;20048;-71
2020/12/09 10:29:01;;;;;;;54.28;29.88;;;3.00;99.90;;;;;;5012133;28;20018;-72
2020/12/09 10:31:44;;;;;;;54.08;28.73;;;3.00;99.90;;;;;;5016721;28;20026;-71
2020/12/09 10:34:13;;;;;;;48.65;27.55;;;3.10;99.90;;;;;;5014572;28;20109;-73
2020/12/09 10:36:42;;;;;;;55.85;30.10;;;3.20;99.90;;;;;;5014824;28;20461;-72
2020/12/09 10:39:09;;;;;;;55.20;30.23;;;3.30;99.90;;;;;;5015259;28;20065;-70
2020/12/09 10:41:38;;;;;;;57.78;30.02;;;3.40;99.90;;;;;;5016929;28;20022;-71
2020/12/09 10:44:04;;;;;;;52.75;28.88;;;3.30;99.90;;;;;;5013417;28;20109;-71
2020/12/09 10:46:35;;;;;;;50.70;28.48;;;3.30;99.90;;;;;;4979287;28;20098;-71
2020/12/09 10:49:06;;;;;;;54.10;28.40;;;3.30;99.90;;;;;;5016811;23;20077;-70
2020/12/09 10:51:33;;;;;;;51.40;28.60;;;3.30;99.90;;;;;;4999343;28;20026;-70
2020/12/09 10:54:00;;;;;;;53.67;28.65;;;3.40;99.90;;;;;;4992856;28;20388;-70
2020/12/09 10:56:27;;;;;;;53.30;27.98;;;3.40;99.90;;;;;;4994556;28;20555;-70
2020/12/09 10:58:54;;;;;;;53.88;29.45;;;3.40;99.90;;;;;;5004560;28;20439;-70
2020/12/09 11:01:20;;;;;;;50.85;28.77;;;3.50;99.90;;;;;;5009976;28;20045;-72
2020/12/09 11:03:46;;;;;;;53.10;29.60;;;3.40;99.90;;;;;;4993353;28;20047;-72
2020/12/09 11:06:13;;;;;;;53.08;29.27;;;3.40;99.90;;;;;;4995485;28;20022;-70
2020/12/09 11:08:39;;;;;;;51.05;29.00;;;3.50;99.90;;;;;;4996157;28;20093;-72
2020/12/09 11:11:05;;;;;;;56.78;29.23;;;3.50;99.90;;;;;;5015316;28;20105;-71
2020/12/09 11:13:31;;;;;;;47.55;26.80;;;3.60;99.90;;;;;;5014304;28;20029;-72
2020/12/09 11:15:57;;;;;;;47.55;26.83;;;3.50;99.90;;;;;;5015459;28;20022;-71
2020/12/09 11:18:23;;;;;;;52.17;28.38;;;3.50;99.90;;;;;;5014966;28;20400;-72
2020/12/09 11:20:49;;;;;;;52.22;28.63;;;3.30;99.90;;;;;;5015049;28;20060;-72
2020/12/09 11:23:14;;;;;;;48.42;26.90;;;3.40;99.90;;;;;;5013492;28;20026;-72
2020/12/09 11:25:40;;;;;;;151.27;47.80;;;3.60;99.90;;;;;;5015793;28;20029;-75
2020/12/09 11:28:06;;;;;;;58.17;29.13;;;3.70;99.90;;;;;;5014265;28;20484;-71
2020/12/09 11:30:31;;;;;;;50.03;28.08;;;3.70;99.90;;;;;;5014506;28;20026;-72
2020/12/09 11:32:57;;;;;;;70.80;36.15;;;3.60;99.90;;;;;;5014356;28;20072;-72
2020/12/09 11:35:23;;;;;;;51.42;27.17;;;4.00;99.90;;;;;;5013023;28;20021;-73
2020/12/09 11:37:49;;;;;;;48.83;28.35;;;3.60;99.90;;;;;;5014085;28;20121;-74
2020/12/09 11:40:14;;;;;;;50.38;28.20;;;3.50;99.90;;;;;;4995889;28;20173;-75
2020/12/09 11:42:40;;;;;;;44.70;26.13;;;3.40;99.90;;;;;;4992958;28;20042;-75
2020/12/09 11:45:07;;;;;;;41.70;25.27;;;3.50;99.90;;;;;;4993230;28;20027;-73
2020/12/09 11:47:35;;;;;;;49.03;28.20;;;3.20;99.90;;;;;;5004488;28;20030;-73
2020/12/09 11:50:03;;;;;;;50.80;28.95;;;3.30;99.90;;;;;;5014521;28;20022;-73
2020/12/09 11:52:29;;;;;;;50.22;28.08;;;3.20;99.90;;;;;;5011843;28;20022;-72
2020/12/09 11:54:54;;;;;;;48.67;27.38;;;3.50;99.90;;;;;;5012261;28;20113;-74
2020/12/09 11:57:20;;;;;;;51.47;29.10;;;3.60;99.90;;;;;;5012892;28;20113;-75
2020/12/09 11:59:46;;;;;;;52.53;29.27;;;3.60;99.90;;;;;;5012774;28;20033;-73
2020/12/09 12:02:12;;;;;;;48.85;28.38;;;3.50;99.90;;;;;;5012818;28;20424;-73
2020/12/09 12:04:39;;;;;;;48.20;28.30;;;3.60;99.90;;;;;;5011587;28;20026;-72
2020/12/09 12:07:05;;;;;;;50.67;28.25;;;3.60;99.90;;;;;;5012717;28;20017;-73
2020/12/09 12:09:30;;;;;;;51.78;28.77;;;3.50;99.90;;;;;;5012545;28;20104;-73
2020/12/09 12:11:57;;;;;;;50.30;27.35;;;3.50;99.90;;;;;;5012882;28;20022;-72
2020/12/09 12:14:22;;;;;;;47.15;27.33;;;3.50;99.90;;;;;;5012272;28;20053;-73
2020/12/09 12:16:48;;;;;;;47.95;27.20;;;3.40;99.90;;;;;;5012893;28;20433;-72
2020/12/09 12:19:17;;;;;;;50.33;28.58;;;3.40;99.90;;;;;;5011194;28;20018;-74
2020/12/09 12:21:42;;;;;;;52.65;28.10;;;3.50;99.90;;;;;;5011255;28;20032;-72
2020/12/09 12:24:08;;;;;;;51.22;30.20;;;3.60;99.90;;;;;;5011570;28;20018;-73
2020/12/09 12:26:34;;;;;;;51.47;29.25;;;3.50;99.90;;;;;;5012872;28;20500;-74
2020/12/09 12:29:00;;;;;;;52.17;28.65;;;3.40;99.90;;;;;;5012290;28;20100;-71
2020/12/09 12:31:25;;;;;;;49.58;28.55;;;3.40;99.90;;;;;;5012505;28;20029;-72
2020/12/09 12:33:51;;;;;;;54.88;29.33;;;3.50;99.90;;;;;;5011762;28;20535;-72
2020/12/09 12:36:20;;;;;;;55.95;30.42;;;3.50;99.90;;;;;;4998056;28;20018;-72
2020/12/09 12:38:46;;;;;;;50.33;28.55;;;3.50;99.90;;;;;;4995087;28;20432;-73
2020/12/09 12:41:12;;;;;;;53.47;30.70;;;3.50;99.90;;;;;;4997933;28;20027;-75